Map

Track Data

SID SEASON NUMBER BASIN SUBBASIN NAME ISO_TIME NATURE LAT LON WMO_WIND WMO_PRES WMO_AGENCY TRACK_TYPE DIST2LAND LANDFALL IFLAG USA_AGENCY USA_ATCF_ID USA_LAT USA_LON USA_RECORD USA_STATUS USA_WIND USA_PRES USA_SSHS USA_R34_NE USA_R34_SE USA_R34_SW USA_R34_NW USA_R50_NE USA_R50_SE USA_R50_SW USA_R50_NW USA_R64_NE USA_R64_SE USA_R64_SW USA_R64_NW USA_POCI USA_ROCI USA_RMW USA_EYE TOKYO_LAT TOKYO_LON TOKYO_GRADE TOKYO_WIND TOKYO_PRES TOKYO_R50_DIR TOKYO_R50_LONG TOKYO_R50_SHORT TOKYO_R30_DIR TOKYO_R30_LONG TOKYO_R30_SHORT TOKYO_LAND CMA_LAT CMA_LON CMA_CAT CMA_WIND CMA_PRES HKO_LAT HKO_LON HKO_CAT HKO_WIND HKO_PRES NEWDELHI_LAT NEWDELHI_LON NEWDELHI_GRADE NEWDELHI_WIND NEWDELHI_PRES NEWDELHI_CI NEWDELHI_DP NEWDELHI_POCI REUNION_LAT REUNION_LON REUNION_TYPE REUNION_WIND REUNION_PRES REUNION_TNUM REUNION_CI REUNION_RMW REUNION_R34_NE REUNION_R34_SE REUNION_R34_SW REUNION_R34_NW REUNION_R50_NE REUNION_R50_SE REUNION_R50_SW REUNION_R50_NW REUNION_R64_NE REUNION_R64_SE REUNION_R64_SW REUNION_R64_NW BOM_LAT BOM_LON BOM_TYPE BOM_WIND BOM_PRES BOM_TNUM BOM_CI BOM_RMW BOM_R34_NE BOM_R34_SE BOM_R34_SW BOM_R34_NW BOM_R50_NE BOM_R50_SE BOM_R50_SW BOM_R50_NW BOM_R64_NE BOM_R64_SE BOM_R64_SW BOM_R64_NW BOM_ROCI BOM_POCI BOM_EYE BOM_POS_METHOD BOM_PRES_METHOD NADI_LAT NADI_LON NADI_CAT NADI_WIND NADI_PRES WELLINGTON_LAT WELLINGTON_LON WELLINGTON_WIND WELLINGTON_PRES DS824_LAT DS824_LON DS824_STAGE DS824_WIND DS824_PRES TD9636_LAT TD9636_LON TD9636_STAGE TD9636_WIND TD9636_PRES TD9635_LAT TD9635_LON TD9635_WIND TD9635_PRES TD9635_ROCI NEUMANN_LAT NEUMANN_LON NEUMANN_CLASS NEUMANN_WIND NEUMANN_PRES MLC_LAT MLC_LON MLC_CLASS MLC_WIND MLC_PRES USA_GUST BOM_GUST BOM_GUST_PER REUNION_GUST REUNION_GUST_PER USA_SEAHGT USA_SEARAD_NE USA_SEARAD_SE USA_SEARAD_SW USA_SEARAD_NW STORM_SPEED STORM_DIR
1968034S15140 1968 12 SP EA NOT_NAMED 1968-02-02 18:00:00 TS -14.5000 139.700 main 193 193 O_____________ jtwc_sh SH211968 -14.5000 139.700 10 -1 0 0
1968034S15140 1968 12 SP EA NOT_NAMED 1968-02-02 21:00:00 TS -14.5025 139.708 main 193 193 P_____________ SH211968 -14.5025 139.708 7 -1 0 0
1968034S15140 1968 12 SP EA NOT_NAMED 1968-02-02 23:00:00 TS -14.5013 139.704 1006 bom main 193 193 P_____O___O___ SH211968 -14.5017 139.705 5 -1 -14.5000 139.700 1006 -14.5000 139.700 1 10 0 0
1968034S15140 1968 12 SP EA NOT_NAMED 1968-02-03 00:00:00 TS -14.4997 139.699 main 193 193 O_____P__OP___ jtwc_sh SH211968 -14.5000 139.700 5 -1 -14.5020 139.708 1006 -14.5000 139.700 TC 15 1006 -14.4963 139.685 1 9 1 0
1968034S15140 1968 12 SP EA NOT_NAMED 1968-02-03 02:00:00 TS -14.4947 139.678 1006 bom main 193 193 P_____O__PP___ SH211968 -14.4946 139.680 5 -1 -14.5000 139.700 1006 -14.4921 139.675 TC 15 1006 -14.4915 139.653 1 7 1 281
1968034S15140 1968 12 SP EA NOT_NAMED 1968-02-03 03:00:00 TS -14.4923 139.660 main 193 193 P_____P__PP___ SH211968 -14.4925 139.665 5 -1 -14.4946 139.675 1006 -14.4900 139.660 TC 15 1006 -14.4916 139.637 1 6 1 268
1968034S15140 1968 12 SP EA NOT_NAMED 1968-02-03 05:00:00 TS -14.4964 139.615 1006 bom main 204 204 P_____O__PO___ SH211968 -14.4943 139.625 5 -1 -14.5000 139.600 1006 -14.4932 139.623 TC 15 1006 -14.5000 139.600 1 5 1 257
1968034S15140 1968 12 SP EA NOT_NAMED 1968-02-03 06:00:00 TS -14.5080 139.589 main 204 204 O_____P__OP___ jtwc_sh SH211968 -14.5000 139.600 5 -1 -14.5309 139.567 1006 -14.5000 139.600 TC 15 1006 -14.5094 139.580 1 5 2 238
1968034S15140 1968 12 SP EA NOT_NAMED 1968-02-03 08:00:00 TS -14.5427 139.531 1006 bom main 215 215 P_____O__PP___ SH211968 -14.5254 139.541 6 -1 -14.6000 139.500 1006 -14.5254 139.541 TC 15 1006 -14.5372 139.533 1 7 2 242
1968034S15140 1968 12 SP EA NOT_NAMED 1968-02-03 09:00:00 TS -14.5580 139.499 main 215 215 P_____P__PP___ SH211968 -14.5425 139.508 7 -1 -14.6079 139.467 1006 -14.5425 139.508 TC 15 1006 -14.5545 139.507 1 8 2 245
1968034S15140 1968 12 SP EA NOT_NAMED 1968-02-03 11:00:00 TS -14.5870 139.431 1006 bom main 226 226 P_____O__PP___ SH211968 -14.5807 139.436 9 -1 -14.6000 139.400 1006 -14.5807 139.436 TC 15 1006 -14.5931 139.448 1 10 2 245
1968034S15140 1968 12 SP EA NOT_NAMED 1968-02-03 12:00:00 TS -14.6016 139.396 main 226 226 O_____P__OP___ jtwc_sh SH211968 -14.6000 139.400 10 -1 -14.5946 139.367 1006 -14.6000 139.400 TC 15 1006 -14.6133 139.414 1 10 2 244
1968034S15140 1968 12 SP EA NOT_NAMED 1968-02-03 14:00:00 TS -14.6337 139.333 1006 bom main 237 237 P_____O__PP___ SH211968 -14.6387 139.344 11 -1 -14.6000 139.300 1006 -14.6388 139.339 TC 15 1006 -14.6525 139.338 1 12 2 242
1968034S15140 1968 12 SP EA NOT_NAMED 1968-02-03 15:00:00 TS -14.6547 139.300 main 237 232 P_____P__PP___ SH211968 -14.6575 139.315 12 -1 -14.6309 139.267 1006 -14.6575 139.307 TC 15 1006 -14.6704 139.296 1 13 2 240
1968034S15140 1968 12 SP EA NOT_NAMED 1968-02-03 17:00:00 TS -14.6934 139.226 1006 bom main 232 232 P_____O__PO___ SH211968 -14.6890 139.245 14 -1 -14.7000 139.200 1006 -14.6890 139.239 TC 15 1006 -14.7000 139.200 1 15 2 246
1968034S15140 1968 12 SP EA NOT_NAMED 1968-02-03 18:00:00 TS -14.7029 139.186 main 232 225 O_____P__OP___ jtwc_sh SH211968 -14.7000 139.200 15 -1 -14.7079 139.167 1005 -14.7000 139.200 TC 15 1006 -14.7066 139.163 1 14 3 264
1968034S15140 1968 12 SP EA NOT_NAMED 1968-02-03 20:00:00 TS -14.7075 139.097 1005 bom main 225 225 P_____O__PP___ SH211968 -14.7079 139.088 13 -1 -14.7000 139.100 1005 -14.7078 139.130 TC 16 1005 -14.7139 139.081 1 13 3 268
1968034S15140 1968 12 SP EA NOT_NAMED 1968-02-03 21:00:00 TS -14.7075 139.049 main 218 209 P_____P__PP___ SH211968 -14.7075 139.022 12 -1 -14.7000 139.078 1005 -14.7074 139.087 TC 17 1005 -14.7152 139.035 1 13 3 271
1968034S15140 1968 12 SP EA NOT_NAMED 1968-02-03 23:00:00 TS -14.7044 138.932 1005 bom main 209 209 P_____O__PP___ SH211968 -14.7026 138.878 10 -1 -14.7000 139.000 1005 -14.7026 138.975 TC 19 1005 -14.7143 138.927 1 12 4 272
1968034S15140 1968 12 SP EA NOT_NAMED 1968-02-04 00:00:00 TS -14.7025 138.856 main 209 188 O_____P__OP___ jtwc_sh SH211968 -14.7000 138.800 10 -1 -14.7000 138.916 1004 -14.7000 138.900 TC 20 1005 -14.7125 138.863 1 12 5 271
1968034S15140 1968 12 SP EA NOT_NAMED 1968-02-04 02:00:00 TS -14.7014 138.694 1004 bom main 188 178 P_____O__PP___ SH211968 -14.6998 138.674 10 -1 -14.7000 138.700 1004 -14.7000 138.715 TC 21 1003 -14.7075 138.710 1 11 5 270
1968034S15140 1968 12 SP EA NOT_NAMED 1968-02-04 03:00:00 TS -14.7008 138.607 main 178 157 P_____P__PP___ SH211968 -14.6998 138.603 10 -1 -14.7000 138.611 1003 -14.6999 138.602 TC 22 1003 -14.7047 138.618 1 10 6 270
1968034S15140 1968 12 SP EA NOT_NAMED 1968-02-04 05:00:00 TS -14.6999 138.397 1002 bom main 157 147 P_____O__PO___ SH211968 -14.6999 138.420 10 -1 -14.7000 138.400 1002 -14.6999 138.344 TC 24 1002 -14.7000 138.400 1 10 7 271
1968034S15140 1968 12 SP EA NOT_NAMED 1968-02-04 06:00:00 TS -14.6969 138.262 main 147 106 O_____P__OP___ jtwc_sh SH211968 -14.7000 138.300 10 -1 -14.7000 138.249 1002 -14.7000 138.200 TC 25 1002 -14.6843 138.260 1 10 9 271
1968034S15140 1968 12 SP EA NOT_NAMED 1968-02-04 08:00:00 TS -14.6886 137.937 1002 bom main 106 97 P_____O__PP___ SH211968 -14.7002 137.975 11 -1 -14.7000 137.900 1002 -14.6945 137.896 TC 25 1002 -14.6480 137.939 1 12 10 271
1968034S15140 1968 12 SP EA NOT_NAMED 1968-02-04 09:00:00 TS -14.6846 137.761 main 97 62 P_____P__PP___ SH211968 -14.7002 137.787 12 -1 -14.7000 137.739 1002 -14.6925 137.730 TC 25 1002 -14.6304 137.764 1 13 11 271
1968034S15140 1968 12 SP EA NOT_NAMED 1968-02-04 11:00:00 TS -14.6796 137.392 1002 bom main 62 49 P_____O__PP___ SH211968 -14.7001 137.393 14 -1 -14.7000 137.400 1002 -14.6943 137.380 TC 25 1002 -14.6037 137.394 1 15 11 271
1968034S15140 1968 12 SP EA NOT_NAMED 1968-02-04 12:00:00 TS -14.6795 137.201 main 49 44 O_____P__OP___ jtwc_sh SH211968 -14.7000 137.200 15 -1 -14.7000 137.202 1002 -14.7000 137.200 TC 25 1002 -14.5976 137.204 1 15 11 271
1968034S15140 1968 12 SP EA NOT_NAMED 1968-02-04 14:00:00 TS -14.6713 136.832 1002 bom main 44 44 P_____O__PP___ SH211968 -14.6728 136.848 16 -1 -14.7000 136.800 1002 -14.7037 136.836 TC 25 1002 -14.6074 136.827 1 17 11 271
1968034S15140 1968 12 SP EA NOT_NAMED 1968-02-04 15:00:00 TS -14.6695 136.657 main 44 44 P_____P__PP___ SH211968 -14.6624 136.677 17 -1 -14.6836 136.636 1002 -14.7125 136.650 TC 25 1002 -14.6263 136.643 1 18 10 267
1968034S15140 1968 12 SP EA NOT_NAMED 1968-02-04 17:00:00 TS -14.7001 136.317 1002 bom main 55 55 P_____O__PO___ SH211968 -14.6714 136.353 19 -1 -14.7000 136.300 1002 -14.7579 136.280 TC 25 1002 -14.7000 136.300 1 20 10 261
1968034S15140 1968 12 SP EA NOT_NAMED 1968-02-04 18:00:00 TS -14.7478 136.142 main 58 24 O_____P__OP___ jtwc_sh SH211968 -14.7000 136.200 20 -1 -14.7818 136.066 1002 -14.8000 136.100 TC 25 1002 -14.7573 136.144 1 20 11 248
1968034S15140 1968 12 SP EA NOT_NAMED 1968-02-04 20:00:00 TS -14.8950 135.810 1002 bom main 24 11 P_____O__PP___ SH211968 -14.8173 135.916 20 -1 -15.0000 135.600 1002 -14.9297 135.755 TC 25 1002 -14.9107 135.861 1 20 11 243
1968034S15140 1968 12 SP EA NOT_NAMED 1968-02-04 21:00:00 TS -14.9842 135.656 main 11 0 P_____P__PP___ SH211968 -14.9001 135.783 20 -1 -15.0691 135.437 1002 -15.0126 135.588 TC 25 1002 -15.0043 135.733 1 20 10 235
1968034S15140 1968 12 SP EA NOT_NAMED 1968-02-04 23:00:00 TS -15.1756 135.387 1002 bom main 0 0 P_____O__PP___ SH211968 -15.0951 135.526 20 -1 -15.2000 135.200 1002 -15.2006 135.262 TC 25 1002 -15.2193 135.499 1 20 10 232
1968034S15140 1968 12 SP EA NOT_NAMED 1968-02-05 00:00:00 TS -15.2889 135.251 main 0 0 O_____P__OP___ jtwc_sh SH211968 -15.2000 135.400 20 -1 -15.2812 135.076 1002 -15.3000 135.100 TC 25 1002 -15.3384 135.391 1 20 10 222
1968034S15140 1968 12 SP EA NOT_NAMED 1968-02-05 02:00:00 NR -15.5467 135.044 1002 bom main 0 0 ______O___P___ SH211968 -1 -15.5000 134.900 1002 TC -15.5934 135.187 1 20 10 213
1968034S15140 1968 12 SI WA NOT_NAMED 1968-02-05 03:00:00 NR -15.6882 134.981 main 0 0 ______P___P___ SH211968 -1 -15.6494 134.873 1002 TC -15.7269 135.090 1 20 10 197
1968034S15140 1968 12 SI WA NOT_NAMED 1968-02-05 05:00:00 NR -16.0000 134.900 1005 bom main 0 ______O___O___ SH211968 -1 -16.0000 134.900 1005 TC -16.0000 134.900 1 20 10 194

Digital Typhoon Data and Search

About IBTrACS Database

This database is a web-friendly format of International Best Track Archive for Climate Stewardship (IBTrACS), a global best track data archive curated by NOAA dating back to 1842.

Updated: 2021-10-27